createdAt,value
2023-02-17T00:00:27.681Z,60.33
2023-02-17T00:03:30.274Z,50.05
2023-02-17T00:06:32.814Z,65.53
2023-02-17T00:09:36.975Z,51.58
2023-02-17T00:12:39.400Z,53.97
2023-02-17T00:15:42.009Z,60.90
2023-02-17T00:18:44.787Z,57.70
2023-02-17T00:21:47.355Z,58.37
2023-02-17T00:24:49.752Z,61.67
2023-02-17T00:27:52.396Z,49.75
2023-02-17T00:30:54.665Z,56.50
2023-02-17T00:33:58.810Z,56.70
2023-02-17T00:37:02.560Z,59.95
2023-02-17T00:40:06.195Z,57.35
2023-02-17T00:43:08.865Z,50.17
2023-02-17T00:46:12.940Z,58.22
2023-02-17T00:49:21.243Z,56.87
2023-02-17T00:52:24.526Z,58.33
2023-02-17T00:55:27.029Z,54.55
2023-02-17T00:58:30.063Z,55.22
2023-02-17T01:01:33.360Z,58.65
2023-02-17T01:07:38.119Z,50.22
2023-02-17T01:10:43.446Z,54.67
2023-02-17T01:13:45.758Z,55.10
2023-02-17T01:16:49.294Z,61.43
2023-02-17T01:19:51.635Z,57.15
2023-02-17T01:22:54.193Z,53.78
2023-02-17T01:25:56.540Z,56.08
2023-02-17T01:29:00.039Z,52.20
2023-02-17T01:32:02.290Z,54.83
2023-02-17T01:35:05.703Z,52.17
2023-02-17T01:38:10.428Z,50.97
2023-02-17T01:44:21.774Z,40.45
2023-02-17T01:47:24.794Z,50.47
2023-02-17T01:50:32.552Z,48.53
2023-02-17T01:53:40.168Z,54.25
2023-02-17T01:56:45.997Z,58.38
2023-02-17T01:59:49.805Z,59.00
2023-02-17T02:02:52.503Z,52.42
2023-02-17T02:05:55.621Z,49.70
2023-02-17T02:09:06.823Z,47.55
2023-02-17T02:12:24.627Z,50.85
2023-02-17T02:15:35.037Z,49.72
2023-02-17T02:18:37.129Z,47.78
2023-02-17T02:22:01.107Z,52.20
2023-02-17T02:28:22.548Z,52.85
2023-02-17T02:31:30.250Z,49.83
2023-02-17T02:34:42.744Z,47.10
2023-02-17T02:38:01.208Z,50.33
2023-02-17T02:41:13.107Z,47.97
2023-02-17T02:44:19.144Z,55.70
2023-02-17T02:47:43.488Z,50.50
2023-02-17T02:51:10.579Z,49.40
2023-02-17T02:54:24.470Z,45.92
2023-02-17T02:57:37.194Z,53.65
2023-02-17T03:00:57.953Z,48.05
2023-02-17T03:04:17.131Z,47.42
2023-02-17T03:07:31.939Z,56.33
2023-02-17T03:10:35.398Z,46.45
2023-02-17T03:13:39.562Z,42.13
2023-02-17T03:16:43.840Z,39.58
2023-02-17T03:19:47.765Z,50.47
2023-02-17T03:22:51.021Z,46.50
2023-02-17T03:25:53.784Z,47.05
2023-02-17T03:28:57.163Z,47.40
2023-02-17T03:32:00.431Z,42.07
2023-02-17T03:35:03.271Z,36.55
2023-02-17T03:38:06.605Z,45.45
2023-02-17T03:41:09.195Z,37.72
2023-02-17T03:44:12.098Z,36.83
2023-02-17T03:47:14.550Z,39.72
2023-02-17T03:50:18.108Z,36.05
2023-02-17T03:53:21.152Z,40.17
2023-02-17T03:56:24.143Z,38.70
2023-02-17T03:59:26.969Z,41.75
2023-02-17T04:02:29.517Z,40.78
2023-02-17T04:05:33.342Z,35.13
2023-02-17T04:08:36.620Z,41.45
2023-02-17T04:11:39.302Z,39.58
2023-02-17T04:14:41.491Z,33.45
2023-02-17T04:20:49.905Z,31.30
2023-02-17T04:23:54.450Z,43.15
2023-02-17T04:26:56.789Z,41.42
2023-02-17T04:29:59.723Z,37.13
2023-02-17T04:33:02.787Z,43.85
2023-02-17T04:39:08.227Z,40.15
2023-02-17T04:42:10.806Z,46.25
2023-02-17T04:45:13.786Z,42.33
2023-02-17T04:48:16.657Z,49.15
2023-02-17T04:51:19.068Z,43.80
2023-02-17T04:54:22.847Z,56.65
2023-02-17T05:00:27.749Z,37.47
2023-02-17T05:03:30.043Z,40.08
2023-02-17T05:06:32.595Z,49.45
2023-02-17T05:09:35.033Z,34.97
2023-02-17T05:12:37.726Z,43.17
2023-02-17T05:15:40.090Z,39.75
2023-02-17T05:18:42.664Z,40.92
2023-02-17T05:21:44.892Z,48.75
2023-02-17T05:24:47.499Z,40.00
2023-02-17T05:27:49.698Z,38.00
2023-02-17T05:30:52.599Z,39.08
2023-02-17T05:33:55.249Z,43.45
2023-02-17T05:36:58.133Z,52.92
2023-02-17T05:40:00.454Z,40.80
2023-02-17T05:43:03.035Z,38.22
2023-02-17T05:46:11.411Z,38.45
2023-02-17T05:49:20.480Z,41.92
2023-02-17T05:52:34.137Z,35.80
2023-02-17T05:55:37.173Z,35.00
2023-02-17T05:58:40.047Z,39.07
2023-02-17T06:01:45.433Z,35.55
2023-02-17T06:04:48.248Z,40.53
2023-02-17T06:07:50.792Z,35.58
2023-02-17T06:13:57.149Z,33.08
2023-02-17T06:17:04.697Z,37.10
2023-02-17T06:20:08.022Z,37.03
2023-02-17T06:26:22.669Z,38.13
2023-02-17T06:29:27.753Z,33.55
2023-02-17T06:32:34.616Z,33.63
2023-02-17T06:35:37.889Z,39.47
2023-02-17T06:38:40.581Z,39.33
2023-02-17T06:41:43.844Z,39.53
2023-02-17T06:44:46.577Z,40.95
2023-02-17T06:47:49.263Z,35.97
2023-02-17T06:50:52.442Z,41.45
2023-02-17T07:00:06.906Z,34.25
2023-02-17T07:03:09.388Z,29.05
2023-02-17T07:06:12.330Z,35.70
2023-02-17T07:09:14.762Z,30.23
2023-02-17T07:12:17.482Z,28.70
2023-02-17T07:15:19.868Z,34.72
2023-02-17T07:18:22.378Z,32.78
2023-02-17T07:21:24.714Z,34.83
2023-02-17T07:24:30.650Z,29.67
2023-02-17T07:27:37.712Z,31.23
2023-02-17T07:30:41.400Z,41.05
2023-02-17T07:33:43.816Z,35.90
2023-02-17T07:36:46.341Z,33.40
2023-02-17T07:39:50.995Z,32.67
2023-02-17T07:43:21.233Z,32.65
2023-02-17T07:46:24.460Z,39.38
2023-02-17T07:49:29.005Z,35.47
2023-02-17T07:52:31.942Z,36.00
2023-02-17T07:55:35.836Z,32.90
2023-02-17T07:58:40.906Z,33.13
2023-02-17T08:01:43.615Z,32.33
2023-02-17T08:04:46.285Z,31.37
2023-02-17T08:07:48.505Z,33.03
2023-02-17T08:11:10.059Z,32.27
2023-02-17T08:14:13.277Z,33.35
2023-02-17T08:20:18.458Z,31.80
2023-02-17T08:23:22.145Z,30.77
2023-02-17T08:26:25.167Z,35.85
2023-02-17T08:29:29.275Z,26.30
2023-02-17T08:32:31.740Z,25.98
2023-02-17T08:35:34.508Z,27.63
2023-02-17T08:38:37.381Z,25.02
2023-02-17T08:41:42.144Z,29.50
2023-02-17T08:44:45.153Z,25.57
2023-02-17T08:47:53.120Z,27.58
2023-02-17T08:50:56.000Z,24.77
2023-02-17T08:54:12.848Z,21.30
2023-02-17T08:57:15.541Z,26.50
2023-02-17T09:00:18.506Z,23.23
2023-02-17T09:03:20.809Z,23.77
2023-02-17T09:06:25.423Z,23.73
2023-02-17T09:09:28.389Z,24.58
2023-02-17T09:12:33.004Z,25.80
2023-02-17T09:15:35.663Z,20.52
2023-02-17T09:18:38.162Z,23.48
2023-02-17T09:21:40.383Z,26.73
2023-02-17T09:24:44.354Z,28.73
2023-02-17T09:27:46.561Z,22.15
2023-02-17T09:30:49.268Z,21.65
2023-02-17T09:33:52.138Z,26.73
2023-02-17T09:36:54.657Z,20.95
2023-02-17T09:39:56.897Z,16.75
2023-02-17T09:42:59.543Z,22.87
2023-02-17T09:46:18.824Z,19.85
2023-02-17T09:49:26.863Z,26.87
2023-02-17T09:52:36.086Z,23.92
2023-02-17T09:55:46.446Z,23.62
2023-02-17T09:58:56.022Z,22.33
2023-02-17T10:02:00.224Z,22.00
2023-02-17T10:05:08.590Z,30.90
2023-02-17T10:08:22.471Z,27.83
2023-02-17T10:11:33.283Z,29.30
2023-02-17T10:14:59.412Z,29.77
2023-02-17T10:18:11.772Z,29.08
2023-02-17T10:21:30.775Z,27.30
2023-02-17T10:24:33.412Z,29.75
2023-02-17T10:27:43.282Z,28.90
2023-02-17T10:30:59.487Z,37.22
2023-02-17T10:34:04.772Z,30.27
2023-02-17T10:37:32.580Z,34.50
2023-02-17T10:40:34.772Z,33.95
2023-02-17T10:43:37.313Z,29.17
2023-02-17T10:46:42.965Z,34.35
2023-02-17T10:49:49.620Z,41.20
2023-02-17T10:52:53.839Z,37.08
2023-02-17T10:56:09.913Z,34.55
2023-02-17T10:59:27.769Z,37.20
2023-02-17T11:02:43.277Z,35.17
2023-02-17T11:05:53.749Z,38.55
2023-02-17T11:08:58.818Z,39.13
2023-02-17T11:12:04.184Z,32.47
2023-02-17T11:15:17.794Z,34.30
2023-02-17T11:18:25.570Z,44.15
2023-02-17T11:21:30.043Z,34.28
2023-02-17T11:24:35.737Z,38.67
2023-02-17T11:27:38.518Z,30.08
2023-02-17T11:30:50.643Z,38.55
2023-02-17T11:33:55.849Z,35.42
2023-02-17T11:37:32.357Z,38.33
2023-02-17T11:40:34.914Z,41.80
2023-02-17T11:43:37.949Z,40.60
2023-02-17T11:47:05.930Z,42.33
2023-02-17T11:50:40.898Z,41.80
2023-02-17T11:54:05.832Z,44.15
2023-02-17T12:00:39.454Z,36.50
2023-02-17T12:04:24.198Z,40.75
2023-02-17T12:07:45.499Z,39.28
2023-02-17T12:11:08.119Z,41.17
2023-02-17T12:14:13.579Z,43.00
2023-02-17T12:17:31.434Z,45.78
2023-02-17T12:20:42.723Z,44.15
2023-02-17T12:24:29.902Z,44.95
2023-02-17T12:27:38.603Z,47.20
2023-02-17T12:30:51.764Z,45.00
2023-02-17T12:33:57.139Z,47.67
2023-02-17T12:37:01.143Z,48.92
2023-02-17T12:40:11.610Z,50.15
2023-02-17T12:43:28.345Z,47.13
2023-02-17T12:46:44.345Z,45.05
2023-02-17T12:49:58.841Z,49.22
2023-02-17T12:53:05.104Z,54.03
2023-02-17T12:56:31.336Z,49.42
2023-02-17T12:59:35.881Z,45.70
2023-02-17T13:02:38.702Z,52.17
2023-02-17T13:05:47.998Z,43.87
2023-02-17T13:08:56.081Z,45.38
2023-02-17T13:12:22.743Z,47.70
2023-02-17T13:15:33.225Z,46.05
2023-02-17T13:18:37.850Z,50.05
2023-02-17T13:21:53.488Z,47.47
2023-02-17T13:24:56.022Z,45.22
2023-02-17T13:28:03.809Z,48.85
2023-02-17T13:31:18.392Z,47.67
2023-02-17T13:34:26.711Z,53.03
2023-02-17T13:37:31.821Z,45.05
2023-02-17T13:40:40.678Z,48.70
2023-02-17T13:43:43.359Z,52.28
2023-02-17T13:46:47.123Z,48.60
2023-02-17T13:49:59.522Z,43.92
2023-02-17T13:53:21.289Z,44.42
2023-02-17T13:56:27.789Z,51.95
2023-02-17T13:59:30.259Z,45.78
2023-02-17T14:02:36.306Z,49.10
2023-02-17T14:05:44.534Z,42.55
2023-02-17T14:08:46.794Z,51.97
2023-02-17T14:11:50.437Z,44.88
2023-02-17T14:14:52.817Z,46.85
2023-02-17T14:17:56.354Z,45.88
2023-02-17T14:21:07.149Z,45.58
2023-02-17T14:24:26.444Z,46.92
2023-02-17T14:27:29.138Z,50.88
2023-02-17T14:30:38.346Z,48.65
2023-02-17T14:33:40.644Z,56.75
2023-02-17T14:36:43.368Z,45.22
2023-02-17T14:39:45.600Z,49.30
2023-02-17T14:42:48.150Z,49.63
2023-02-17T14:45:51.072Z,45.47
2023-02-17T14:48:54.224Z,49.83
2023-02-17T14:51:56.463Z,52.47
2023-02-17T14:54:59.906Z,46.45
2023-02-17T14:58:02.631Z,46.17
2023-02-17T15:01:05.766Z,47.45
2023-02-17T15:04:07.985Z,36.90
2023-02-17T15:07:16.373Z,47.80
2023-02-17T15:10:24.925Z,45.67
2023-02-17T15:13:27.496Z,42.88
2023-02-17T15:16:30.302Z,42.62
2023-02-17T15:19:32.834Z,44.65
2023-02-17T15:22:35.036Z,40.97
2023-02-17T15:25:37.596Z,42.28
2023-02-17T15:28:39.804Z,43.03
2023-02-17T15:31:42.568Z,43.60
2023-02-17T15:34:45.223Z,41.30
2023-02-17T15:37:48.594Z,44.03
2023-02-17T15:40:51.089Z,41.88
2023-02-17T15:43:56.079Z,40.13
2023-02-17T15:46:58.331Z,39.90
2023-02-17T15:50:00.892Z,38.92
2023-02-17T15:53:03.366Z,48.35
2023-02-17T15:56:15.946Z,46.40
2023-02-17T15:59:27.607Z,41.25
2023-02-17T16:02:30.338Z,40.63
2023-02-17T16:05:33.651Z,40.05
2023-02-17T16:08:35.909Z,39.78
2023-02-17T16:11:51.809Z,43.40
2023-02-17T16:14:54.758Z,45.58
2023-02-17T16:17:58.694Z,40.20
2023-02-17T16:21:01.033Z,34.78
2023-02-17T16:24:03.691Z,40.08
2023-02-17T16:27:09.481Z,36.13
2023-02-17T16:30:22.089Z,37.08
2023-02-17T16:33:24.336Z,52.33
2023-02-17T16:36:32.379Z,39.63
2023-02-17T16:39:35.004Z,37.17
2023-02-17T16:42:37.476Z,39.83
2023-02-17T16:45:48.903Z,43.60
2023-02-17T16:48:51.548Z,39.90
2023-02-17T16:51:54.039Z,45.30
2023-02-17T16:54:56.851Z,56.10
2023-02-17T16:57:59.527Z,44.60
2023-02-17T17:01:03.740Z,46.85
2023-02-17T17:04:07.067Z,45.28
2023-02-17T17:10:18.986Z,47.38
2023-02-17T17:13:21.871Z,52.40
2023-02-17T17:16:34.712Z,47.03
2023-02-17T17:19:37.243Z,49.33
2023-02-17T17:22:39.973Z,50.28
2023-02-17T17:25:45.688Z,48.95
2023-02-17T17:28:49.110Z,49.67
2023-02-17T17:34:55.047Z,49.28
2023-02-17T17:37:58.689Z,48.33
2023-02-17T17:41:00.876Z,52.13
2023-02-17T17:44:03.523Z,45.97
2023-02-17T17:47:05.850Z,68.37
2023-02-17T17:50:22.379Z,53.47
2023-02-17T17:53:24.593Z,43.80
2023-02-17T17:56:33.054Z,48.22
2023-02-17T17:59:36.165Z,54.17
2023-02-17T18:02:38.686Z,51.25
2023-02-17T18:05:41.170Z,44.78
2023-02-17T18:08:45.217Z,51.17
2023-02-17T18:11:50.408Z,52.97
2023-02-17T18:14:54.697Z,54.67
2023-02-17T18:17:57.307Z,55.20
2023-02-17T18:20:59.480Z,63.65
2023-02-17T18:24:03.713Z,53.20
2023-02-17T18:27:05.915Z,57.88
2023-02-17T18:30:10.292Z,51.92
2023-02-17T18:33:14.456Z,63.65
2023-02-17T18:36:19.963Z,60.53
2023-02-17T18:39:22.138Z,59.95
2023-02-17T18:42:24.581Z,56.25
2023-02-17T18:45:26.864Z,52.53
2023-02-17T18:48:30.126Z,56.13
2023-02-17T18:51:32.584Z,54.65
2023-02-17T18:54:35.191Z,59.30
2023-02-17T18:57:37.486Z,53.25
2023-02-17T19:00:40.012Z,50.42
2023-02-17T19:03:42.228Z,50.83
2023-02-17T19:06:44.689Z,55.38
2023-02-17T19:09:47.444Z,49.90
2023-02-17T19:12:49.943Z,59.83
2023-02-17T19:15:52.118Z,68.62
2023-02-17T19:18:56.257Z,60.55
2023-02-17T19:21:58.631Z,58.38
2023-02-17T19:25:01.048Z,55.38
2023-02-17T19:28:03.257Z,55.40
2023-02-17T19:31:11.778Z,57.13
2023-02-17T19:34:15.512Z,56.00
2023-02-17T19:37:17.936Z,46.22
2023-02-17T19:40:20.184Z,53.75
2023-02-17T19:43:22.591Z,58.17
2023-02-17T19:46:25.760Z,57.08
2023-02-17T19:49:28.362Z,57.60
2023-02-17T19:52:30.578Z,56.03
2023-02-17T19:55:33.160Z,54.90
2023-02-17T19:58:35.358Z,52.55
2023-02-17T20:01:37.872Z,57.78
2023-02-17T20:04:41.031Z,53.25
2023-02-17T20:07:43.210Z,50.75
2023-02-17T20:10:45.691Z,50.12
2023-02-17T20:13:47.964Z,51.42
2023-02-17T20:16:53.338Z,59.22
2023-02-17T20:19:55.706Z,47.05
2023-02-17T20:22:58.117Z,50.00
2023-02-17T20:26:09.140Z,51.97
2023-02-17T20:29:13.564Z,58.65
2023-02-17T20:32:15.895Z,57.38
2023-02-17T20:35:18.524Z,56.33
2023-02-17T20:38:20.746Z,52.05
2023-02-17T20:41:23.735Z,56.80
2023-02-17T20:44:27.898Z,52.67
2023-02-17T20:47:30.605Z,65.40
2023-02-17T20:50:35.504Z,61.65
2023-02-17T20:53:38.013Z,58.35
2023-02-17T20:56:43.927Z,64.00
2023-02-17T20:59:47.099Z,60.38
2023-02-17T21:02:52.260Z,56.90
2023-02-17T21:05:54.767Z,57.95
2023-02-17T21:09:03.614Z,61.00
2023-02-17T21:12:07.064Z,54.28
2023-02-17T21:15:09.758Z,58.72
2023-02-17T21:18:12.234Z,57.72
2023-02-17T21:21:15.011Z,61.33
2023-02-17T21:24:17.436Z,56.28
2023-02-17T21:27:19.703Z,57.42
2023-02-17T21:30:22.345Z,51.97
2023-02-17T21:33:24.516Z,48.85
2023-02-17T21:36:29.062Z,33.40
2023-02-17T21:39:31.676Z,29.52
2023-02-17T21:42:55.018Z,25.88
2023-02-17T21:45:57.328Z,28.55
2023-02-17T21:49:01.069Z,25.02
2023-02-17T21:52:04.128Z,26.67
2023-02-17T21:55:06.706Z,23.50
2023-02-17T21:58:08.972Z,25.23
2023-02-17T22:01:11.527Z,28.10
2023-02-17T22:04:14.218Z,24.10
2023-02-17T22:07:16.440Z,28.23
2023-02-17T22:10:19.035Z,25.25
2023-02-17T22:13:21.232Z,25.23
2023-02-17T22:16:24.728Z,25.50
2023-02-17T22:19:30.376Z,26.98
2023-02-17T22:22:33.829Z,30.02
2023-02-17T22:25:41.225Z,30.10
2023-02-17T22:28:44.197Z,27.83
2023-02-17T22:31:47.216Z,28.15
2023-02-17T22:34:49.835Z,32.42
2023-02-17T22:37:51.992Z,29.67
2023-02-17T22:40:54.670Z,30.58
2023-02-17T22:43:56.947Z,31.95
2023-02-17T22:46:59.434Z,29.37
2023-02-17T22:50:01.609Z,28.30
2023-02-17T22:53:04.089Z,29.15
2023-02-17T22:56:07.918Z,32.08
2023-02-17T22:59:10.732Z,31.02
2023-02-17T23:02:12.979Z,31.40
2023-02-17T23:05:15.568Z,29.98
2023-02-17T23:08:17.776Z,26.70
2023-02-17T23:11:43.570Z,24.05
2023-02-17T23:14:46.192Z,25.67
2023-02-17T23:17:57.729Z,24.52
2023-02-17T23:21:06.361Z,21.87
2023-02-17T23:24:08.917Z,29.40
2023-02-17T23:27:11.582Z,24.23
2023-02-17T23:30:19.549Z,20.30
2023-02-17T23:33:24.527Z,17.52
2023-02-17T23:36:27.170Z,22.50
2023-02-17T23:39:29.409Z,21.08
2023-02-17T23:42:31.884Z,15.60
2023-02-17T23:45:34.953Z,16.52
2023-02-17T23:48:37.557Z,15.30
2023-02-17T23:51:39.811Z,16.65
2023-02-17T23:54:42.312Z,14.32
2023-02-17T23:57:44.652Z,13.52
